sensor_id;sensor_type;location;lat;lon;timestamp;temperature;humidity
43607;DHT22;29197;44.788;10.366;2023-04-25T01:25:11;16.80;99.90
43607;DHT22;29197;44.788;10.366;2023-04-25T07:06:26;16.30;99.90
43607;DHT22;29197;44.788;10.366;2023-04-25T07:09:14;16.30;99.90
43607;DHT22;29197;44.788;10.366;2023-04-25T07:12:04;16.40;99.90
43607;DHT22;29197;44.788;10.366;2023-04-25T07:14:52;16.40;99.90
43607;DHT22;29197;44.788;10.366;2023-04-25T07:17:42;16.40;99.90
43607;DHT22;29197;44.788;10.366;2023-04-25T07:20:31;16.50;99.90
43607;DHT22;29197;44.788;10.366;2023-04-25T07:23:20;16.60;99.90
43607;DHT22;29197;44.788;10.366;2023-04-25T07:34:36;16.30;99.90
43607;DHT22;29197;44.788;10.366;2023-04-25T07:37:25;16.30;99.90
43607;DHT22;29197;44.788;10.366;2023-04-25T10:36:19;18.50;99.90
43607;DHT22;29197;44.788;10.366;2023-04-25T10:42:01;18.40;99.90
43607;DHT22;29197;44.788;10.366;2023-04-25T10:45:01;18.50;99.90
43607;DHT22;29197;44.788;10.366;2023-04-25T10:47:50;18.80;99.90
43607;DHT22;29197;44.788;10.366;2023-04-25T10:50:39;18.70;99.90
43607;DHT22;29197;44.788;10.366;2023-04-25T10:53:33;18.60;99.90
43607;DHT22;29197;44.788;10.366;2023-04-25T10:59:13;18.60;99.90
43607;DHT22;29197;44.788;10.366;2023-04-25T11:02:11;18.60;99.90
43607;DHT22;29197;44.788;10.366;2023-04-25T11:05:01;18.80;99.90
43607;DHT22;29197;44.788;10.366;2023-04-25T11:07:52;18.80;99.90
43607;DHT22;29197;44.788;10.366;2023-04-25T11:10:53;18.80;99.90
43607;DHT22;29197;44.788;10.366;2023-04-25T11:13:42;18.80;99.90
43607;DHT22;29197;44.788;10.366;2023-04-25T11:19:24;18.90;99.90
43607;DHT22;29197;44.788;10.366;2023-04-25T11:25:05;19.90;99.90
43607;DHT22;29197;44.788;10.366;2023-04-25T11:27:55;20.10;99.90
43607;DHT22;29197;44.788;10.366;2023-04-25T11:30:48;20.10;99.90
43607;DHT22;29197;44.788;10.366;2023-04-25T11:33:38;20.30;99.90
43607;DHT22;29197;44.788;10.366;2023-04-25T11:36:27;20.50;99.90
43607;DHT22;29197;44.788;10.366;2023-04-25T11:39:18;20.60;99.90
43607;DHT22;29197;44.788;10.366;2023-04-25T11:42:07;20.90;99.90
43607;DHT22;29197;44.788;10.366;2023-04-25T11:45:00;20.90;99.90
43607;DHT22;29197;44.788;10.366;2023-04-25T11:47:49;20.60;99.90
43607;DHT22;29197;44.788;10.366;2023-04-25T11:50:40;20.90;99.90
43607;DHT22;29197;44.788;10.366;2023-04-25T11:53:28;20.80;99.90
43607;DHT22;29197;44.788;10.366;2023-04-25T11:56:17;21.20;99.90
43607;DHT22;29197;44.788;10.366;2023-04-25T11:59:06;21.00;99.90
43607;DHT22;29197;44.788;10.366;2023-04-25T12:01:55;21.20;99.90
43607;DHT22;29197;44.788;10.366;2023-04-25T12:04:45;21.10;99.90
43607;DHT22;29197;44.788;10.366;2023-04-25T12:07:35;21.20;99.90
43607;DHT22;29197;44.788;10.366;2023-04-25T12:10:25;21.60;99.90
43607;DHT22;29197;44.788;10.366;2023-04-25T12:13:20;22.10;99.90
43607;DHT22;29197;44.788;10.366;2023-04-25T12:16:10;22.70;99.90
43607;DHT22;29197;44.788;10.366;2023-04-25T12:18:58;23.10;99.90
43607;DHT22;29197;44.788;10.366;2023-04-25T12:21:47;23.40;99.90
43607;DHT22;29197;44.788;10.366;2023-04-25T12:24:48;23.60;99.90
43607;DHT22;29197;44.788;10.366;2023-04-25T12:30:27;22.20;99.90
43607;DHT22;29197;44.788;10.366;2023-04-25T12:33:15;22.00;99.90
43607;DHT22;29197;44.788;10.366;2023-04-25T12:36:05;21.60;99.90
43607;DHT22;29197;44.788;10.366;2023-04-25T12:38:56;21.80;99.90
43607;DHT22;29197;44.788;10.366;2023-04-25T12:41:52;22.10;99.90
43607;DHT22;29197;44.788;10.366;2023-04-25T12:44:41;22.50;99.90
43607;DHT22;29197;44.788;10.366;2023-04-25T12:50:22;23.40;99.90
43607;DHT22;29197;44.788;10.366;2023-04-25T12:53:10;23.50;99.90
43607;DHT22;29197;44.788;10.366;2023-04-25T12:55:59;23.50;99.90
43607;DHT22;29197;44.788;10.366;2023-04-25T12:58:49;23.70;99.90
43607;DHT22;29197;44.788;10.366;2023-04-25T13:07:17;23.50;99.90
43607;DHT22;29197;44.788;10.366;2023-04-25T13:10:06;22.60;99.90
43607;DHT22;29197;44.788;10.366;2023-04-25T13:12:55;22.30;99.90
43607;DHT22;29197;44.788;10.366;2023-04-25T13:15:45;22.30;99.90
43607;DHT22;29197;44.788;10.366;2023-04-25T13:21:22;22.60;99.90
43607;DHT22;29197;44.788;10.366;2023-04-25T13:29:50;21.50;99.90
43607;DHT22;29197;44.788;10.366;2023-04-25T13:32:40;21.20;99.90
43607;DHT22;29197;44.788;10.366;2023-04-25T13:35:29;21.50;99.90
43607;DHT22;29197;44.788;10.366;2023-04-25T13:38:18;22.10;99.90
43607;DHT22;29197;44.788;10.366;2023-04-25T13:41:06;22.50;99.90
43607;DHT22;29197;44.788;10.366;2023-04-25T13:43:55;22.40;99.90
43607;DHT22;29197;44.788;10.366;2023-04-25T13:46:44;22.40;99.90
43607;DHT22;29197;44.788;10.366;2023-04-25T13:49:35;22.70;99.90
43607;DHT22;29197;44.788;10.366;2023-04-25T13:52:24;22.90;99.90
43607;DHT22;29197;44.788;10.366;2023-04-25T14:00:54;24.30;99.90
43607;DHT22;29197;44.788;10.366;2023-04-25T14:03:43;24.20;99.90
43607;DHT22;29197;44.788;10.366;2023-04-25T14:06:34;24.20;99.90
43607;DHT22;29197;44.788;10.366;2023-04-25T14:09:22;24.10;99.90
43607;DHT22;29197;44.788;10.366;2023-04-25T14:12:12;23.60;99.90
43607;DHT22;29197;44.788;10.366;2023-04-25T14:15:01;23.50;99.90
43607;DHT22;29197;44.788;10.366;2023-04-25T14:20:39;22.80;99.90
43607;DHT22;29197;44.788;10.366;2023-04-25T14:23:29;22.50;99.90
43607;DHT22;29197;44.788;10.366;2023-04-25T14:26:18;22.30;99.90
43607;DHT22;29197;44.788;10.366;2023-04-25T14:29:07;22.40;99.90
43607;DHT22;29197;44.788;10.366;2023-04-25T14:31:59;22.20;99.90
43607;DHT22;29197;44.788;10.366;2023-04-25T14:34:47;21.90;99.90
43607;DHT22;29197;44.788;10.366;2023-04-25T14:37:36;21.60;99.90
43607;DHT22;29197;44.788;10.366;2023-04-25T14:40:26;21.40;99.90
43607;DHT22;29197;44.788;10.366;2023-04-25T14:43:15;21.30;99.90
43607;DHT22;29197;44.788;10.366;2023-04-25T14:46:03;21.20;99.90
43607;DHT22;29197;44.788;10.366;2023-04-25T14:48:52;21.30;99.90
43607;DHT22;29197;44.788;10.366;2023-04-25T14:51:43;21.60;99.90
43607;DHT22;29197;44.788;10.366;2023-04-25T14:54:32;21.70;99.90
43607;DHT22;29197;44.788;10.366;2023-04-25T14:57:22;22.00;99.90
43607;DHT22;29197;44.788;10.366;2023-04-25T15:00:11;22.00;99.90
43607;DHT22;29197;44.788;10.366;2023-04-25T15:03:04;22.10;99.90
43607;DHT22;29197;44.788;10.366;2023-04-25T15:05:55;22.20;99.90
43607;DHT22;29197;44.788;10.366;2023-04-25T15:08:43;22.00;99.90
43607;DHT22;29197;44.788;10.366;2023-04-25T15:11:32;21.90;99.90
43607;DHT22;29197;44.788;10.366;2023-04-25T15:14:22;21.80;99.90
43607;DHT22;29197;44.788;10.366;2023-04-25T15:17:10;21.80;99.90
43607;DHT22;29197;44.788;10.366;2023-04-25T15:20:01;21.80;99.90
43607;DHT22;29197;44.788;10.366;2023-04-25T15:22:49;21.80;99.90
43607;DHT22;29197;44.788;10.366;2023-04-25T15:25:38;21.80;99.90
43607;DHT22;29197;44.788;10.366;2023-04-25T15:28:27;21.40;99.90
43607;DHT22;29197;44.788;10.366;2023-04-25T15:31:17;21.10;99.90
43607;DHT22;29197;44.788;10.366;2023-04-25T15:36:55;20.50;99.90
43607;DHT22;29197;44.788;10.366;2023-04-25T15:39:44;20.10;99.90
43607;DHT22;29197;44.788;10.366;2023-04-25T15:42:33;19.70;99.90
43607;DHT22;29197;44.788;10.366;2023-04-25T15:45:22;19.40;99.90
43607;DHT22;29197;44.788;10.366;2023-04-25T15:48:13;19.00;99.90
43607;DHT22;29197;44.788;10.366;2023-04-25T15:51:02;18.70;99.90
43607;DHT22;29197;44.788;10.366;2023-04-25T15:53:51;18.30;99.90
43607;DHT22;29197;44.788;10.366;2023-04-25T15:56:40;18.10;99.90
43607;DHT22;29197;44.788;10.366;2023-04-25T15:59:29;17.90;99.90
43607;DHT22;29197;44.788;10.366;2023-04-25T16:02:17;17.80;99.90
43607;DHT22;29197;44.788;10.366;2023-04-25T16:05:09;17.70;99.90
43607;DHT22;29197;44.788;10.366;2023-04-25T16:07:59;17.50;99.90
43607;DHT22;29197;44.788;10.366;2023-04-25T16:10:48;17.30;99.90
43607;DHT22;29197;44.788;10.366;2023-04-25T16:13:36;17.10;99.90
43607;DHT22;29197;44.788;10.366;2023-04-25T16:16:25;18.50;99.90
43607;DHT22;29197;44.788;10.366;2023-04-25T16:19:14;17.00;99.90
43607;DHT22;29197;44.788;10.366;2023-04-25T16:22:04;17.00;99.90
43607;DHT22;29197;44.788;10.366;2023-04-25T16:24:54;17.00;99.90
43607;DHT22;29197;44.788;10.366;2023-04-25T16:30:32;16.90;99.90
43607;DHT22;29197;44.788;10.366;2023-04-25T16:33:20;16.60;99.90
43607;DHT22;29197;44.788;10.366;2023-04-25T16:36:09;16.30;99.90
43607;DHT22;29197;44.788;10.366;2023-04-25T16:39:00;15.90;99.90
43607;DHT22;29197;44.788;10.366;2023-04-25T16:41:49;15.90;99.90
43607;DHT22;29197;44.788;10.366;2023-04-25T16:44:38;16.10;99.90
43607;DHT22;29197;44.788;10.366;2023-04-25T16:47:26;16.30;99.90
43607;DHT22;29197;44.788;10.366;2023-04-25T16:50:15;16.30;99.90
43607;DHT22;29197;44.788;10.366;2023-04-25T16:53:04;16.50;99.90
43607;DHT22;29197;44.788;10.366;2023-04-25T16:55:54;16.60;99.90
43607;DHT22;29197;44.788;10.366;2023-04-25T17:01:32;16.90;99.90
43607;DHT22;29197;44.788;10.366;2023-04-25T17:04:20;16.70;99.90
43607;DHT22;29197;44.788;10.366;2023-04-25T17:07:09;16.80;99.90
43607;DHT22;29197;44.788;10.366;2023-04-25T17:09:58;16.60;99.90
43607;DHT22;29197;44.788;10.366;2023-04-25T17:12:48;16.60;99.90
43607;DHT22;29197;44.788;10.366;2023-04-25T17:15:37;16.60;99.90
43607;DHT22;29197;44.788;10.366;2023-04-25T17:18:26;16.60;99.90
43607;DHT22;29197;44.788;10.366;2023-04-25T17:21:14;16.60;99.90
43607;DHT22;29197;44.788;10.366;2023-04-25T17:24:03;16.50;99.90
43607;DHT22;29197;44.788;10.366;2023-04-25T17:26:55;16.50;99.90
43607;DHT22;29197;44.788;10.366;2023-04-25T17:29:45;16.40;99.90
43607;DHT22;29197;44.788;10.366;2023-04-25T17:32:34;16.30;99.90
43607;DHT22;29197;44.788;10.366;2023-04-25T17:35:22;16.20;99.90
43607;DHT22;29197;44.788;10.366;2023-04-25T17:38:12;16.10;99.90
43607;DHT22;29197;44.788;10.366;2023-04-25T17:41:01;16.10;99.90
43607;DHT22;29197;44.788;10.366;2023-04-25T17:43:49;16.20;99.90
43607;DHT22;29197;44.788;10.366;2023-04-25T17:46:39;15.90;99.90
43607;DHT22;29197;44.788;10.366;2023-04-25T17:49:28;15.70;99.90
43607;DHT22;29197;44.788;10.366;2023-04-25T17:52:17;15.70;99.90
43607;DHT22;29197;44.788;10.366;2023-04-25T17:55:06;15.50;99.90
43607;DHT22;29197;44.788;10.366;2023-04-25T17:57:55;15.40;99.90
43607;DHT22;29197;44.788;10.366;2023-04-25T18:00:43;15.40;99.90
43607;DHT22;29197;44.788;10.366;2023-04-25T18:03:33;15.50;99.90
43607;DHT22;29197;44.788;10.366;2023-04-25T18:06:24;15.50;99.90
43607;DHT22;29197;44.788;10.366;2023-04-25T18:09:14;15.60;99.90
43607;DHT22;29197;44.788;10.366;2023-04-25T18:12:09;15.70;99.90
43607;DHT22;29197;44.788;10.366;2023-04-25T18:14:58;15.70;99.90
43607;DHT22;29197;44.788;10.366;2023-04-25T18:17:47;15.70;99.90
43607;DHT22;29197;44.788;10.366;2023-04-25T18:20:37;15.60;99.90
43607;DHT22;29197;44.788;10.366;2023-04-25T18:23:26;15.50;99.90
43607;DHT22;29197;44.788;10.366;2023-04-25T18:26:14;15.60;99.90
43607;DHT22;29197;44.788;10.366;2023-04-25T18:29:03;15.70;99.90
43607;DHT22;29197;44.788;10.366;2023-04-25T18:31:53;16.00;99.90
43607;DHT22;29197;44.788;10.366;2023-04-25T18:34:42;16.10;99.90
43607;DHT22;29197;44.788;10.366;2023-04-25T18:37:34;16.10;99.90
43607;DHT22;29197;44.788;10.366;2023-04-25T18:40:23;16.20;99.90
43607;DHT22;29197;44.788;10.366;2023-04-25T18:43:11;16.20;99.90
43607;DHT22;29197;44.788;10.366;2023-04-25T18:46:00;16.30;99.90
43607;DHT22;29197;44.788;10.366;2023-04-25T18:48:49;16.40;99.90
43607;DHT22;29197;44.788;10.366;2023-04-25T18:51:39;16.40;99.90
43607;DHT22;29197;44.788;10.366;2023-04-25T18:54:29;16.30;99.90
43607;DHT22;29197;44.788;10.366;2023-04-25T18:57:18;16.30;99.90
43607;DHT22;29197;44.788;10.366;2023-04-25T19:00:08;16.20;99.90
43607;DHT22;29197;44.788;10.366;2023-04-25T19:02:57;16.30;99.90
43607;DHT22;29197;44.788;10.366;2023-04-25T19:05:49;16.10;99.90
43607;DHT22;29197;44.788;10.366;2023-04-25T19:08:38;16.10;99.90
43607;DHT22;29197;44.788;10.366;2023-04-25T19:11:28;15.90;99.90
43607;DHT22;29197;44.788;10.366;2023-04-25T19:14:16;15.70;99.90
43607;DHT22;29197;44.788;10.366;2023-04-25T19:17:05;15.70;99.90
43607;DHT22;29197;44.788;10.366;2023-04-25T19:19:54;15.80;99.90
43607;DHT22;29197;44.788;10.366;2023-04-25T19:22:42;16.00;99.90
43607;DHT22;29197;44.788;10.366;2023-04-25T19:25:31;16.00;99.90
43607;DHT22;29197;44.788;10.366;2023-04-25T19:28:21;16.00;99.90
43607;DHT22;29197;44.788;10.366;2023-04-25T19:31:10;16.00;99.90
43607;DHT22;29197;44.788;10.366;2023-04-25T19:33:58;16.00;99.90
43607;DHT22;29197;44.788;10.366;2023-04-25T19:36:47;15.70;99.90
43607;DHT22;29197;44.788;10.366;2023-04-25T19:39:38;15.40;99.90
43607;DHT22;29197;44.788;10.366;2023-04-25T19:42:27;15.30;99.90
43607;DHT22;29197;44.788;10.366;2023-04-25T19:45:17;14.90;99.90
43607;DHT22;29197;44.788;10.366;2023-04-25T19:48:05;14.80;99.90
43607;DHT22;29197;44.788;10.366;2023-04-25T19:50:56;14.80;99.90
43607;DHT22;29197;44.788;10.366;2023-04-25T19:53:45;14.70;99.90
43607;DHT22;29197;44.788;10.366;2023-04-25T19:56:34;14.80;99.90
43607;DHT22;29197;44.788;10.366;2023-04-25T19:59:23;14.90;99.90
43607;DHT22;29197;44.788;10.366;2023-04-25T20:02:12;14.00;99.90
43607;DHT22;29197;44.788;10.366;2023-04-25T20:05:02;14.00;99.90
43607;DHT22;29197;44.788;10.366;2023-04-25T20:07:51;14.20;99.90
43607;DHT22;29197;44.788;10.366;2023-04-25T20:10:39;14.10;99.90
43607;DHT22;29197;44.788;10.366;2023-04-25T20:13:29;14.10;99.90
43607;DHT22;29197;44.788;10.366;2023-04-25T20:16:17;14.30;99.90
43607;DHT22;29197;44.788;10.366;2023-04-25T20:19:09;14.20;99.90
43607;DHT22;29197;44.788;10.366;2023-04-25T20:21:58;13.90;99.90
43607;DHT22;29197;44.788;10.366;2023-04-25T20:24:46;13.80;99.90
43607;DHT22;29197;44.788;10.366;2023-04-25T20:27:35;13.30;99.90
43607;DHT22;29197;44.788;10.366;2023-04-25T20:30:24;13.60;99.90
43607;DHT22;29197;44.788;10.366;2023-04-25T20:33:13;13.90;99.90
43607;DHT22;29197;44.788;10.366;2023-04-25T20:36:03;13.70;99.90
43607;DHT22;29197;44.788;10.366;2023-04-25T20:38:52;14.00;99.90
43607;DHT22;29197;44.788;10.366;2023-04-25T20:41:41;14.30;99.90
43607;DHT22;29197;44.788;10.366;2023-04-25T20:44:30;14.50;99.90
43607;DHT22;29197;44.788;10.366;2023-04-25T20:47:19;14.60;99.90
43607;DHT22;29197;44.788;10.366;2023-04-25T20:50:08;14.30;99.90
43607;DHT22;29197;44.788;10.366;2023-04-25T20:52:58;14.50;99.90
43607;DHT22;29197;44.788;10.366;2023-04-25T20:55:47;14.70;99.90
43607;DHT22;29197;44.788;10.366;2023-04-25T20:58:35;14.90;99.90
43607;DHT22;29197;44.788;10.366;2023-04-25T21:01:25;15.10;99.90
43607;DHT22;29197;44.788;10.366;2023-04-25T21:04:14;15.10;99.90
43607;DHT22;29197;44.788;10.366;2023-04-25T21:07:03;15.10;99.90
43607;DHT22;29197;44.788;10.366;2023-04-25T21:09:53;15.20;99.90
43607;DHT22;29197;44.788;10.366;2023-04-25T21:12:41;15.30;99.90
43607;DHT22;29197;44.788;10.366;2023-04-25T21:15:34;16.10;99.90
43607;DHT22;29197;44.788;10.366;2023-04-25T21:18:22;15.00;99.90
43607;DHT22;29197;44.788;10.366;2023-04-25T21:21:11;15.00;99.90
43607;DHT22;29197;44.788;10.366;2023-04-25T21:23:59;15.00;99.90
43607;DHT22;29197;44.788;10.366;2023-04-25T21:26:49;14.90;99.90
43607;DHT22;29197;44.788;10.366;2023-04-25T21:29:38;14.90;99.90
43607;DHT22;29197;44.788;10.366;2023-04-25T21:32:26;14.90;99.90
43607;DHT22;29197;44.788;10.366;2023-04-25T21:35:15;14.60;99.90
43607;DHT22;29197;44.788;10.366;2023-04-25T21:38:04;14.70;99.90
43607;DHT22;29197;44.788;10.366;2023-04-25T21:40:53;14.70;99.90
43607;DHT22;29197;44.788;10.366;2023-04-25T21:43:44;14.40;99.90
43607;DHT22;29197;44.788;10.366;2023-04-25T21:46:32;14.30;99.90
43607;DHT22;29197;44.788;10.366;2023-04-25T21:49:21;14.60;99.90
43607;DHT22;29197;44.788;10.366;2023-04-25T21:52:15;14.70;99.90
43607;DHT22;29197;44.788;10.366;2023-04-25T21:55:04;14.80;99.90
43607;DHT22;29197;44.788;10.366;2023-04-25T21:57:53;14.40;99.90
43607;DHT22;29197;44.788;10.366;2023-04-25T22:00:43;14.10;99.90
43607;DHT22;29197;44.788;10.366;2023-04-25T22:03:31;14.20;99.90
43607;DHT22;29197;44.788;10.366;2023-04-25T22:06:20;14.40;99.90
43607;DHT22;29197;44.788;10.366;2023-04-25T22:09:09;14.50;99.90
43607;DHT22;29197;44.788;10.366;2023-04-25T22:11:57;14.60;99.90
43607;DHT22;29197;44.788;10.366;2023-04-25T22:14:48;14.80;99.90
43607;DHT22;29197;44.788;10.366;2023-04-25T22:17:38;14.80;99.90
43607;DHT22;29197;44.788;10.366;2023-04-25T22:20:27;14.90;99.90
43607;DHT22;29197;44.788;10.366;2023-04-25T22:23:16;14.90;99.90
43607;DHT22;29197;44.788;10.366;2023-04-25T22:26:05;14.90;99.90
43607;DHT22;29197;44.788;10.366;2023-04-25T22:28:53;14.90;99.90
43607;DHT22;29197;44.788;10.366;2023-04-25T22:31:42;14.80;99.90
43607;DHT22;29197;44.788;10.366;2023-04-25T22:34:33;14.70;99.90
43607;DHT22;29197;44.788;10.366;2023-04-25T22:37:22;14.80;99.90
43607;DHT22;29197;44.788;10.366;2023-04-25T22:40:11;14.80;99.90
43607;DHT22;29197;44.788;10.366;2023-04-25T22:43:00;14.80;99.90
43607;DHT22;29197;44.788;10.366;2023-04-25T22:45:48;14.80;99.90
43607;DHT22;29197;44.788;10.366;2023-04-25T22:48:38;14.80;99.90
43607;DHT22;29197;44.788;10.366;2023-04-25T22:51:28;14.80;99.90
43607;DHT22;29197;44.788;10.366;2023-04-25T22:54:17;14.70;99.90
43607;DHT22;29197;44.788;10.366;2023-04-25T22:57:05;14.80;99.90
43607;DHT22;29197;44.788;10.366;2023-04-25T22:59:54;14.80;99.90
43607;DHT22;29197;44.788;10.366;2023-04-25T23:02:44;14.70;99.90
43607;DHT22;29197;44.788;10.366;2023-04-25T23:05:33;14.50;99.90
43607;DHT22;29197;44.788;10.366;2023-04-25T23:08:23;14.60;99.90
43607;DHT22;29197;44.788;10.366;2023-04-25T23:11:12;14.70;99.90
43607;DHT22;29197;44.788;10.366;2023-04-25T23:14:00;14.40;99.90
43607;DHT22;29197;44.788;10.366;2023-04-25T23:16:49;14.10;99.90
43607;DHT22;29197;44.788;10.366;2023-04-25T23:19:38;13.90;99.90
43607;DHT22;29197;44.788;10.366;2023-04-25T23:22:27;13.80;99.90
43607;DHT22;29197;44.788;10.366;2023-04-25T23:25:17;13.40;99.90
43607;DHT22;29197;44.788;10.366;2023-04-25T23:28:06;13.20;99.90
43607;DHT22;29197;44.788;10.366;2023-04-25T23:31:02;13.20;99.90
43607;DHT22;29197;44.788;10.366;2023-04-25T23:33:51;13.10;99.90
43607;DHT22;29197;44.788;10.366;2023-04-25T23:36:40;13.20;99.90
43607;DHT22;29197;44.788;10.366;2023-04-25T23:39:29;13.20;99.90
43607;DHT22;29197;44.788;10.366;2023-04-25T23:42:19;13.10;99.90
43607;DHT22;29197;44.788;10.366;2023-04-25T23:45:08;12.70;99.90
43607;DHT22;29197;44.788;10.366;2023-04-25T23:47:57;12.50;99.90
43607;DHT22;29197;44.788;10.366;2023-04-25T23:50:46;12.70;99.90
43607;DHT22;29197;44.788;10.366;2023-04-25T23:53:34;12.80;99.90
43607;DHT22;29197;44.788;10.366;2023-04-25T23:56:23;12.40;99.90
43607;DHT22;29197;44.788;10.366;2023-04-25T23:59:13;12.30;99.90
